Latest Coastal Weather Observations for Evans Head

IDN60701

Issued at 6:01 pm EST Saturday 1 August 2015 (issued every 10 minutes, with the page automatically refreshed every 10 minutes)

About coastal observations | Map of coastal stations | Coastal observations for NSW | Marine services | Other Formats
Station Details ID: 058212 Name: EVANS HEAD RAAF BOMBING RANGE AWS Lat: -29.18 Lon: 153.40 Height: 62.5 m
Data from the previous 72 hours. | See also: Recent months at Evans Head
Date/Time
EST
Temp

°C
Wind Pressure Rain
since 9am
mm
Weather Cloud Vis
km
Sea
Height
m
Swell
Dir
 
Speed
knots
Gust
knots
hPa Trend Height
m
Period
s
Dir
01/06:00pm 16.5 N 6 7 1019.6 - 0.0 - - - - - - -
01/05:30pm 17.3 N 6 7 1019.4 - 0.0 - - - - - - -
01/05:00pm 18.6 N 7 12 1019.1 - 0.0 - - - - - - -
01/04:30pm 19.8 NE 6 11 1019.0 - 0.0 - - - - - - -
01/04:00pm 21.3 NNE 6 9 1019.2 - 0.0 - - - - - - -
01/03:30pm 22.1 NNE 6 9 1019.1 - 0.0 - - - - - - -
01/03:00pm 23.1 NNE 5 8 1019.4 - 0.0 - - - - - - -
01/02:30pm 22.3 NE 6 12 1019.5 - 0.0 - - - - - - -
01/02:00pm 22.3 NE 7 11 1019.8 - 0.0 - - - - - - -
01/01:30pm 23.6 NE 7 11 1020.3 - 0.0 - - - - - - -
01/01:00pm 23.9 NNW 7 11 1020.7 - 0.0 - - - - - - -
01/12:30pm 24.0 N 6 11 1021.0 - 0.0 - - - - - - -
01/12:00pm 22.7 N 8 13 1021.7 - 0.0 - - - - - - -
01/11:30am 22.4 N 8 12 1022.1 - 0.0 - - - - - - -
01/11:00am 21.6 N 6 10 1022.7 - 0.0 - - - - - - -
01/10:30am 21.4 N 5 8 1022.9 - 0.0 - - - - - - -
01/10:00am 20.3 NNW 5 7 1023.3 - 0.0 - - - - - - -
01/09:30am 18.6 N 2 4 1023.4 - 0.0 - - - - - - -
01/09:00am 16.3 CALM 0 0 1023.4 - 0.0 - - - - - - -
01/08:30am 15.0 NNW 4 6 1023.4 - 0.0 - - - - - - -
01/08:00am 13.1 WNW 5 7 1023.5 - 0.0 - - - - - - -
01/07:30am 11.4 W 7 9 1023.3 - 0.0 - - - - - - -
01/07:00am 9.6 WNW 5 7 1022.9 - 0.0 - - - - - - -
01/06:30am 8.8 N 5 6 1022.4 - 0.0 - - - - - - -
01/06:00am 9.2 N 5 5 1022.1 - 0.0 - - - - - - -
01/05:30am 9.5 WNW 4 5 1022.0 - 0.0 - - - - - - -
01/05:00am 10.6 WNW 3 4 1021.8 - 0.0 - - - - - - -
01/04:30am 9.2 N 5 7 1021.7 - 0.0 - - - - - - -
01/04:00am 9.8 NW 3 4 1021.8 - 0.0 - - - - - - -
01/03:30am 10.5 WNW 5 6 1022.1 - 0.0 - - - - - - -
01/03:00am 12.8 WSW 7 8 1022.2 - 0.0 - - - - - - -
01/02:30am 13.5 WSW 6 7 1022.3 - 0.0 - - - - - - -
01/02:00am 14.3 CALM 0 0 1022.6 - 0.0 - - - - - - -
01/01:30am 14.1 NW 1 4 1022.8 - 0.0 - - - - - - -
01/01:00am 13.7 NNW 5 5 1022.8 - 0.0 - - - - - - -
01/12:30am 13.8 NNW 5 5 1022.8 - 0.0 - - - - - - -
01/12:00am 14.5 NNW 4 5 1022.8 - 0.0 - - - - - - -
 
Date/Time
EST
Temp

°C
Wind Pressure Rain
since 9am
mm
Weather Cloud Vis
km
Sea
Height
m
Swell
Dir
 
Speed
knots
Gust
knots
hPa Trend Height
m
Period
s
Dir
31/11:30pm 15.0 N 3 4 1022.8 - 0.0 - - - - - - -
31/11:00pm 15.1 NE 3 5 1022.7 - 0.0 - - - - - - -
31/10:30pm 15.9 NE 4 5 1022.9 - 0.0 - - - - - - -
31/10:00pm 16.3 ENE 5 6 1022.8 - 0.0 - - - - - - -
31/09:30pm 16.2 ENE 6 7 1022.6 - 0.0 - - - - - - -
31/09:00pm 16.2 ENE 6 8 1022.4 - 0.0 - - - - - - -
31/08:30pm 16.2 ENE 6 8 1022.2 - 0.0 - - - - - - -
31/08:00pm 16.1 ENE 7 8 1021.8 - 0.0 - - - - - - -
31/07:30pm 15.9 ENE 7 8 1021.6 - 0.0 - - - - - - -
31/07:00pm 14.9 NE 5 7 1021.4 - 0.0 - - - - - - -
31/06:30pm 14.7 NNE 5 6 1021.0 - 0.0 - - - - - - -
31/06:00pm 15.5 NE 5 6 1020.6 - 0.0 - - - - - - -
31/05:30pm 15.4 NNE 5 6 1020.4 - 0.0 - - - - - - -
31/05:00pm 16.5 ENE 6 8 1020.3 - 0.0 - - - - - - -
31/04:30pm 17.5 NE 5 6 1019.8 - 0.0 - - - - - - -
31/04:00pm 18.4 NE 5 6 1019.9 - 0.0 - - - - - - -
31/03:30pm 19.0 ENE 5 6 1019.9 - 0.0 - - - - - - -
31/03:00pm 19.4 E 5 7 1020.1 - 0.0 - - - - - - -
31/02:30pm 19.8 E 6 9 1020.4 - 0.0 - - - - - - -
31/02:00pm 19.9 SE 7 9 1020.5 - 0.0 - - - - - - -
31/01:30pm 20.3 SE 8 11 1020.6 - 0.0 - - - - - - -
31/01:00pm 21.0 S 7 11 1020.9 - 0.0 - - - - - - -
31/12:30pm 20.6 W 5 9 1021.2 - 0.0 - - - - - - -
31/12:00pm 20.1 WSW 6 10 1021.7 - 0.0 - - - - - - -
31/11:30am 20.4 WNW 5 8 1022.1 - 0.0 - - - - - - -
31/11:00am 20.9 NNW 7 10 1022.4 - 0.0 - - - - - - -
31/10:30am 19.9 NW 7 10 1022.7 - 0.0 - - - - - - -
31/10:00am 18.6 NW 8 12 1022.9 - 0.0 - - - - - - -
31/09:30am 17.6 NW 9 13 1022.9 - 0.0 - - - - - - -
31/09:00am 17.1 NW 7 14 1022.8 - 0.2 - - - - - - -
31/08:30am 14.9 NW 7 11 1022.7 - 0.2 - - - - - - -
31/08:00am 13.3 NNW 7 11 1022.3 - 0.2 - - - - - - -
31/07:30am 13.3 NNW 9 15 1022.1 - 0.2 - - - - - - -
31/07:00am 11.3 NNW 8 11 1022.2 - 0.2 - - - - - - -
31/06:30am 9.6 NNW 5 7 1021.8 - 0.2 - - - - - - -
31/06:00am 9.9 N 5 7 1021.4 - 0.2 - - - - - - -
31/05:30am 10.2 NNW 8 10 1021.1 - 0.2 - - - - - - -
31/05:00am 9.7 NNW 7 10 1020.8 - 0.2 - - - - - - -
31/04:30am 9.9 NNW 6 8 1020.9 - 0.2 - - - - - - -
31/04:00am 10.5 NNW 5 8 1021.0 - 0.2 - - - - - - -
31/03:30am 11.3 NNW 7 11 1021.5 - 0.2 - - - - - - -
31/03:00am 11.0 NNW 7 11 1021.4 - 0.2 - - - - - - -
31/02:30am 11.3 NNW 7 9 1021.6 - 0.2 - - - - - - -
31/02:00am 11.8 NNW 5 8 1022.3 - 0.2 - - - - - - -
31/01:30am 11.9 NNW 5 9 1022.7 - 0.2 - - - - - - -
31/01:00am 11.6 NNW 7 11 1022.7 - 0.0 - - - - - - -
31/12:30am 11.5 NNW 6 8 1022.5 - 0.0 - - - - - - -
31/12:00am 11.7 NNW 7 9 1022.9 - 0.0 - - - - - - -
 
Date/Time
EST
Temp

°C
Wind Pressure Rain
since 9am
mm
Weather Cloud Vis
km
Sea
Height
m
Swell
Dir
 
Speed
knots
Gust
knots
hPa Trend Height
m
Period
s
Dir
30/11:30pm 11.7 NNW 7 9 1023.0 - 0.0 - - - - - - -
30/11:00pm 12.2 N 7 9 1023.1 - 0.0 - - - - - - -
30/10:30pm 12.7 N 7 10 1023.4 - 0.0 - - - - - - -
30/10:00pm 13.0 N 7 11 1023.6 - 0.0 - - - - - - -
30/09:30pm 13.8 N 10 12 1023.7 - 0.0 - - - - - - -
30/09:00pm 14.1 N 10 18 1023.4 - 0.0 - - - - - - -
30/08:30pm 14.1 N 11 15 1023.4 - 0.0 - - - - - - -
30/08:00pm 14.0 N 9 14 1023.7 - 0.0 - - - - - - -
30/07:30pm 14.0 N 7 11 1023.8 - 0.0 - - - - - - -
30/07:00pm 14.2 N 7 10 1023.8 - 0.0 - - - - - - -
30/06:30pm 14.3 NNE 7 9 1023.8 - 0.0 - - - - - - -
30/06:00pm 14.5 NNE 7 9 1023.9 - 0.0 - - - - - - -
30/05:30pm 15.3 NNE 7 10 1023.9 - 0.0 - - - - - - -
30/05:00pm 16.0 N 6 8 1024.0 - 0.0 - - - - - - -
30/04:30pm 16.9 NNE 5 9 1024.0 - 0.0 - - - - - - -
30/04:00pm 17.5 NE 7 10 1023.5 - 0.0 - - - - - - -
30/03:30pm 17.7 ENE 7 10 1023.5 - 0.0 - - - - - - -
30/03:00pm 18.7 ENE 5 8 1023.8 - 0.0 - - - - - - -
30/02:30pm 18.5 E 6 9 1024.1 - 0.0 - - - - - - -
30/02:00pm 18.8 ESE 5 7 1024.5 - 0.0 - - - - - - -
30/01:30pm 18.5 ESE 6 9 1025.0 - 0.0 - - - - - - -
30/01:00pm 18.9 S 4 7 1025.5 - 0.0 - - - - - - -
30/12:30pm 18.3 SSW 4 7 1026.1 - 0.0 - - - - - - -
30/12:00pm 16.9 ESE 4 5 1026.7 - 0.0 - - - - - - -
30/11:30am 16.9 SSE 6 7 1027.1 - 0.0 - - - - - - -
30/11:00am 18.1 WSW 3 5 1027.6 - 0.0 - - - - - - -
30/10:30am 17.2 SW 4 7 1028.0 - 0.0 - - - - - - -
30/10:00am 16.1 WSW 4 6 1028.2 - 0.0 - - - - - - -
30/09:30am 15.2 WSW 6 9 1028.4 - 0.0 - - - - - - -
30/09:00am 14.5 W 6 10 1028.6 - 1.2 - - - - - - -
30/08:30am 12.6 W 6 8 1028.5 - 1.2 - - - - - - -
30/08:00am 11.2 W 6 9 1028.3 - 1.2 - - - - - - -
30/07:30am 11.2 W 7 9 1028.0 - 1.2 - - - - - - -
30/07:00am 11.0 W 6 8 1027.7 - 1.2 - - - - - - -
30/06:30am 10.8 W 5 6 1027.6 - 1.2 - - - - - - -
30/06:00am 10.8 NW 5 6 1027.3 - 1.2 - - - - - - -
30/05:30am 11.1 W 6 9 1027.3 - 1.2 - - - - - - -
30/05:00am 11.0 W 7 9 1027.2 - 1.2 - - - - - - -
30/04:30am 11.0 WSW 7 10 1027.4 - 1.2 - - - - - - -
30/04:00am 11.2 W 7 9 1027.4 - 1.2 - - - - - - -
30/03:30am 11.6 WSW 7 11 1027.6 - 1.2 - - - - - - -
30/03:00am 11.8 W 7 11 1028.0 - 1.2 - - - - - - -
30/02:30am 12.0 WSW 7 9 1028.2 - 1.2 - - - - - - -
30/02:00am 12.2 SW 7 10 1028.5 - 1.2 - - - - - - -
30/01:30am 12.3 WSW 6 10 1028.6 - 1.2 - - - - - - -
30/01:00am 12.6 SW 8 11 1029.1 - 1.2 - - - - - - -
30/12:30am 12.4 W 7 8 1029.2 - 1.0 - - - - - - -
30/12:00am 12.6 SW 5 7 1029.3 - 0.4 Rain - - - - - -
 
Date/Time
EST
Temp

°C
Wind Pressure Rain
since 9am
mm
Weather Cloud Vis
km
Sea
Height
m
Swell
Dir
 
Speed
knots
Gust
knots
hPa Trend Height
m
Period
s
Dir
29/11:30pm 12.3 WSW 7 9 1029.5 - 0.0 - - - - - - -
29/11:00pm 12.6 WSW 7 9 1029.8 - 0.0 - - - - - - -
29/10:30pm 12.9 WSW 7 9 1030.0 - 0.0 - - - - - - -
29/10:00pm 13.3 WSW 7 9 1029.9 - 0.0 - - - - - - -
29/09:30pm 13.6 WSW 5 7 1030.0 - 0.0 - - - - - - -
29/09:00pm 14.0 SW 8 10 1030.0 - 0.0 - - - - - - -
29/08:30pm 14.2 SW 6 9 1029.8 - 0.0 - - - - - - -
29/08:00pm 14.4 SW 7 11 1029.9 - 0.0 - - - - - - -
29/07:30pm 14.9 SSW 10 16 1029.9 - 0.0 - - - - - - -
29/07:00pm 15.1 SW 9 15 1029.8 - 0.0 - - - - - - -
29/06:30pm 14.9 SSW 9 11 1029.7 - 0.0 - - - - - - -

Other Formats:

Comma delimited format used in spreadsheet applications
http://www.bom.gov.au/fwo/IDN60701/IDN60701.94598.axf

JavaScript Object Notation format (JSON) in row-major order
http://www.bom.gov.au/fwo/IDN60701/IDN60701.94598.json